createdAt,value
2022-07-28T00:00:10.668Z,10.65
2022-07-28T00:02:38.258Z,10.05
2022-07-28T00:05:06.505Z,10.13
2022-07-28T00:07:34.207Z,10.10
2022-07-28T00:10:01.250Z,11.48
2022-07-28T00:12:28.940Z,9.80
2022-07-28T00:14:56.440Z,12.57
2022-07-28T00:17:23.607Z,8.30
2022-07-28T00:19:51.394Z,8.68
2022-07-28T00:22:19.110Z,6.60
2022-07-28T00:24:46.618Z,10.25
2022-07-28T00:27:19.283Z,7.10
2022-07-28T00:29:50.218Z,7.82
2022-07-28T00:32:18.975Z,8.80
2022-07-28T00:34:46.716Z,9.32
2022-07-28T00:37:14.743Z,7.35
2022-07-28T00:39:42.904Z,7.13
2022-07-28T00:42:10.022Z,5.30
2022-07-28T00:44:39.267Z,6.45
2022-07-28T00:47:06.921Z,6.05
2022-07-28T00:49:34.588Z,6.43
2022-07-28T00:52:02.875Z,6.65
2022-07-28T00:54:30.470Z,4.47
2022-07-28T00:56:57.489Z,6.45
2022-07-28T00:59:26.466Z,6.32
2022-07-28T01:01:54.761Z,4.65
2022-07-28T01:04:23.291Z,4.68
2022-07-28T01:07:07.103Z,5.13
2022-07-28T01:09:54.189Z,4.78
2022-07-28T01:12:33.196Z,4.63
2022-07-28T01:15:31.368Z,4.10
2022-07-28T01:18:06.434Z,6.30
2022-07-28T01:20:42.593Z,5.45
2022-07-28T01:23:24.291Z,5.20
2022-07-28T01:26:20.273Z,4.20
2022-07-28T01:29:05.388Z,5.30
2022-07-28T01:31:39.714Z,5.55
2022-07-28T01:34:10.874Z,4.28
2022-07-28T01:36:44.175Z,4.13
2022-07-28T01:39:14.526Z,4.32
2022-07-28T01:41:43.809Z,5.22
2022-07-28T01:44:17.221Z,3.50
2022-07-28T01:46:46.606Z,4.30
2022-07-28T01:49:15.191Z,3.75
2022-07-28T01:51:44.727Z,4.70
2022-07-28T01:54:13.604Z,3.47
2022-07-28T01:56:43.088Z,3.33
2022-07-28T01:59:12.322Z,3.97
2022-07-28T02:01:43.786Z,3.95
2022-07-28T02:04:13.189Z,4.18
2022-07-28T02:06:43.228Z,3.60
2022-07-28T02:09:11.209Z,4.10
2022-07-28T02:11:41.604Z,3.30
2022-07-28T02:14:11.766Z,3.63
2022-07-28T02:16:43.167Z,3.10
2022-07-28T02:19:11.565Z,2.95
2022-07-28T02:21:40.879Z,3.80
2022-07-28T02:24:09.492Z,3.03
2022-07-28T02:26:42.126Z,3.83
2022-07-28T02:29:33.366Z,3.80
2022-07-28T02:32:23.932Z,3.05
2022-07-28T02:35:00.443Z,3.85
2022-07-28T02:37:37.387Z,3.78
2022-07-28T02:40:05.800Z,4.13
2022-07-28T02:42:35.841Z,3.95
2022-07-28T02:45:07.079Z,2.83
2022-07-28T02:47:40.843Z,5.68
2022-07-28T02:50:08.881Z,3.67
2022-07-28T02:52:37.752Z,4.47
2022-07-28T02:55:06.053Z,3.80
2022-07-28T02:57:33.447Z,4.28
2022-07-28T03:00:02.028Z,5.60
2022-07-28T03:02:31.027Z,4.93
2022-07-28T03:05:00.091Z,4.35
2022-07-28T03:07:31.441Z,4.20
2022-07-28T03:10:00.255Z,4.95
2022-07-28T03:12:28.233Z,4.90
2022-07-28T03:14:55.286Z,4.95
2022-07-28T03:17:23.271Z,5.15
2022-07-28T03:19:50.543Z,4.55
2022-07-28T03:22:18.514Z,4.60
2022-07-28T03:24:51.116Z,4.65
2022-07-28T03:27:26.770Z,4.15
2022-07-28T03:30:03.442Z,4.43
2022-07-28T03:32:34.882Z,4.10
2022-07-28T03:35:02.315Z,4.45
2022-07-28T03:37:40.845Z,4.25
2022-07-28T03:40:11.303Z,3.58
2022-07-28T03:42:39.454Z,3.30
2022-07-28T03:45:07.978Z,5.13
2022-07-28T03:47:35.007Z,4.65
2022-07-28T03:50:02.221Z,4.53
2022-07-28T03:52:29.303Z,3.78
2022-07-28T03:54:56.743Z,3.78
2022-07-28T03:57:24.548Z,3.70
2022-07-28T03:59:52.062Z,3.65
2022-07-28T04:02:19.098Z,3.83
2022-07-28T04:04:46.539Z,3.40
2022-07-28T04:07:14.426Z,4.55
2022-07-28T04:09:41.685Z,3.17
2022-07-28T04:12:09.041Z,4.30
2022-07-28T04:14:36.493Z,3.00
2022-07-28T04:17:03.861Z,3.40
2022-07-28T04:19:30.950Z,4.45
2022-07-28T04:21:57.977Z,2.92
2022-07-28T04:24:25.658Z,2.75
2022-07-28T04:26:52.715Z,3.60
2022-07-28T04:29:23.374Z,3.08
2022-07-28T04:31:54.744Z,2.85
2022-07-28T04:34:21.930Z,3.08
2022-07-28T04:36:49.438Z,3.67
2022-07-28T04:39:16.533Z,3.45
2022-07-28T04:41:43.753Z,3.17
2022-07-28T04:44:12.539Z,2.92
2022-07-28T04:46:40.324Z,3.30
2022-07-28T04:49:07.520Z,3.88
2022-07-28T04:51:36.213Z,3.90
2022-07-28T04:54:03.394Z,3.35
2022-07-28T04:56:30.926Z,8.13
2022-07-28T04:58:58.722Z,2.65
2022-07-28T05:01:29.164Z,3.80
2022-07-28T05:03:56.223Z,3.28
2022-07-28T05:06:23.719Z,3.10
2022-07-28T05:08:51.022Z,2.95
2022-07-28T05:11:18.510Z,2.93
2022-07-28T05:13:46.118Z,3.67
2022-07-28T05:16:13.202Z,3.72
2022-07-28T05:18:40.694Z,4.43
2022-07-28T05:21:08.275Z,3.77
2022-07-28T05:23:35.284Z,3.03
2022-07-28T05:26:02.766Z,2.80
2022-07-28T05:28:30.260Z,3.30
2022-07-28T05:30:57.865Z,3.47
2022-07-28T05:33:25.164Z,3.10
2022-07-28T05:35:59.316Z,3.20
2022-07-28T05:38:27.501Z,3.17
2022-07-28T05:40:55.115Z,2.97
2022-07-28T05:43:22.221Z,2.87
2022-07-28T05:45:49.632Z,3.07
2022-07-28T05:48:20.904Z,2.90
2022-07-28T05:50:51.343Z,3.47
2022-07-28T05:53:19.619Z,2.57
2022-07-28T05:56:00.760Z,2.60
2022-07-28T05:58:29.405Z,2.60
2022-07-28T06:01:00.216Z,2.67
2022-07-28T06:03:28.515Z,2.50
2022-07-28T06:05:59.494Z,3.17
2022-07-28T06:08:42.802Z,2.33
2022-07-28T06:11:10.558Z,3.97
2022-07-28T06:13:39.302Z,2.37
2022-07-28T06:16:11.170Z,2.20
2022-07-28T06:18:40.955Z,2.10
2022-07-28T06:21:08.401Z,1.77
2022-07-28T06:23:36.006Z,1.90
2022-07-28T06:26:03.124Z,1.60
2022-07-28T06:28:30.744Z,1.90
2022-07-28T06:30:58.203Z,3.70
2022-07-28T06:33:25.290Z,1.70
2022-07-28T06:35:52.879Z,2.20
2022-07-28T06:38:20.888Z,1.83
2022-07-28T06:40:49.191Z,1.83
2022-07-28T06:43:16.230Z,2.00
2022-07-28T06:45:45.780Z,1.87
2022-07-28T06:48:13.971Z,1.73
2022-07-28T06:50:42.726Z,1.83
2022-07-28T06:53:10.162Z,1.60
2022-07-28T06:55:37.888Z,1.57
2022-07-28T06:58:05.291Z,2.80
2022-07-28T07:00:33.309Z,1.90
2022-07-28T07:03:01.037Z,1.60
2022-07-28T07:05:32.423Z,2.27
2022-07-28T07:08:00.587Z,2.00
2022-07-28T07:10:28.352Z,1.37
2022-07-28T07:12:55.991Z,2.13
2022-07-28T07:15:23.337Z,1.70
2022-07-28T07:17:50.501Z,1.77
2022-07-28T07:20:18.958Z,1.50
2022-07-28T07:22:47.126Z,1.70
2022-07-28T07:25:17.712Z,1.10
2022-07-28T07:27:45.513Z,1.47
2022-07-28T07:30:14.720Z,2.03
2022-07-28T07:32:42.127Z,1.77
2022-07-28T07:35:10.024Z,2.00
2022-07-28T07:37:37.092Z,1.40
2022-07-28T07:40:05.517Z,2.07
2022-07-28T07:42:32.583Z,1.73
2022-07-28T07:44:59.879Z,1.40
2022-07-28T07:47:27.261Z,1.07
2022-07-28T07:49:54.362Z,1.20
2022-07-28T07:52:22.004Z,1.60
2022-07-28T07:54:49.150Z,1.30
2022-07-28T07:57:16.286Z,1.80
2022-07-28T07:59:43.360Z,1.73
2022-07-28T08:02:10.897Z,1.40
2022-07-28T08:04:38.471Z,1.60
2022-07-28T08:07:06.810Z,1.30
2022-07-28T08:09:34.576Z,1.23
2022-07-28T08:12:01.746Z,1.43
2022-07-28T08:14:28.921Z,1.60
2022-07-28T08:16:56.976Z,2.50
2022-07-28T08:19:24.196Z,1.23
2022-07-28T08:21:52.196Z,1.67
2022-07-28T08:24:33.770Z,1.93
2022-07-28T08:27:03.246Z,1.50
2022-07-28T08:29:30.490Z,1.50
2022-07-28T08:31:58.342Z,1.20
2022-07-28T08:34:29.930Z,1.50
2022-07-28T08:37:02.499Z,1.47
2022-07-28T08:39:30.443Z,1.90
2022-07-28T08:42:18.286Z,1.93
2022-07-28T08:44:55.947Z,1.30
2022-07-28T08:47:32.186Z,1.63
2022-07-28T08:50:08.806Z,1.47
2022-07-28T08:52:38.857Z,1.53
2022-07-28T08:55:08.820Z,1.60
2022-07-28T08:57:39.396Z,1.70
2022-07-28T09:00:07.763Z,1.60
2022-07-28T09:02:42.007Z,1.40
2022-07-28T09:05:10.017Z,1.60
2022-07-28T09:07:39.262Z,1.70
2022-07-28T09:10:07.177Z,1.27
2022-07-28T09:12:35.270Z,1.40
2022-07-28T09:15:10.657Z,1.40
2022-07-28T09:17:38.235Z,2.17
2022-07-28T09:20:11.127Z,1.60
2022-07-28T09:23:02.221Z,1.40
2022-07-28T09:25:30.767Z,1.43
2022-07-28T09:28:08.526Z,1.57
2022-07-28T09:30:38.182Z,1.60
2022-07-28T09:33:41.956Z,1.47
2022-07-28T09:36:16.161Z,2.00
2022-07-28T09:38:43.859Z,1.20
2022-07-28T09:41:12.783Z,1.63
2022-07-28T09:43:44.878Z,1.57
2022-07-28T09:46:18.707Z,1.50
2022-07-28T09:49:02.912Z,1.73
2022-07-28T09:51:31.647Z,1.90
2022-07-28T09:54:14.973Z,2.37
2022-07-28T09:56:44.633Z,1.60
2022-07-28T09:59:14.934Z,2.13
2022-07-28T10:02:01.706Z,1.40
2022-07-28T10:04:37.605Z,1.90
2022-07-28T10:07:10.224Z,1.90
2022-07-28T10:09:38.948Z,1.70
2022-07-28T10:12:18.705Z,2.30
2022-07-28T10:14:48.062Z,1.30
2022-07-28T10:17:32.755Z,2.30
2022-07-28T10:20:07.378Z,0.93
2022-07-28T10:22:42.818Z,1.60
2022-07-28T10:25:13.354Z,1.70
2022-07-28T10:27:43.301Z,1.60
2022-07-28T10:30:11.071Z,1.47
2022-07-28T10:32:45.586Z,1.60
2022-07-28T10:35:17.310Z,1.20
2022-07-28T10:38:00.193Z,1.60
2022-07-28T10:40:41.119Z,1.60
2022-07-28T10:43:09.238Z,1.47
2022-07-28T10:46:03.350Z,1.77
2022-07-28T10:48:26.833Z,1.77
2022-07-28T10:50:56.563Z,1.53
2022-07-28T10:53:37.347Z,1.60
2022-07-28T10:56:18.877Z,1.40
2022-07-28T10:59:04.287Z,1.53
2022-07-28T11:01:52.859Z,1.87
2022-07-28T11:04:48.670Z,2.03
2022-07-28T11:07:17.765Z,1.50
2022-07-28T11:09:47.672Z,1.70
2022-07-28T11:12:18.899Z,1.60
2022-07-28T11:14:47.269Z,1.30
2022-07-28T11:17:19.853Z,2.30
2022-07-28T11:22:43.758Z,1.67
2022-07-28T11:25:20.941Z,1.53
2022-07-28T11:27:52.314Z,1.67
2022-07-28T11:30:19.793Z,2.00
2022-07-28T11:32:55.916Z,1.27
2022-07-28T11:35:24.195Z,1.93
2022-07-28T11:38:03.966Z,1.60
2022-07-28T11:40:31.517Z,1.77
2022-07-28T11:43:28.650Z,1.57
2022-07-28T11:46:10.090Z,1.40
2022-07-28T11:48:47.595Z,1.77
2022-07-28T11:51:16.139Z,1.70
2022-07-28T11:53:52.167Z,1.60
2022-07-28T11:56:29.464Z,2.60
2022-07-28T11:59:02.789Z,1.70
2022-07-28T12:01:32.055Z,1.50
2022-07-28T12:04:00.428Z,1.63
2022-07-28T12:06:39.827Z,1.63
2022-07-28T12:09:08.486Z,2.00
2022-07-28T12:11:42.521Z,1.70
2022-07-28T12:14:16.457Z,1.57
2022-07-28T12:16:46.059Z,1.40
2022-07-28T12:19:17.075Z,1.50
2022-07-28T12:21:56.083Z,1.70
2022-07-28T12:24:45.132Z,1.60
2022-07-28T12:27:15.425Z,2.50
2022-07-28T12:29:44.037Z,1.60
2022-07-28T12:32:17.712Z,1.40
2022-07-28T12:34:45.858Z,1.40
2022-07-28T12:37:14.588Z,1.60
2022-07-28T12:39:43.520Z,2.00
2022-07-28T12:42:13.403Z,2.50
2022-07-28T12:44:45.145Z,1.80
2022-07-28T12:47:14.349Z,1.70
2022-07-28T12:49:44.051Z,1.50
2022-07-28T12:52:23.073Z,2.60
2022-07-28T12:54:54.805Z,2.40
2022-07-28T12:57:47.993Z,2.70
2022-07-28T13:00:19.679Z,1.60
2022-07-28T13:02:48.885Z,2.23
2022-07-28T13:05:33.122Z,2.60
2022-07-28T13:08:02.489Z,1.90
2022-07-28T13:10:31.203Z,3.73
2022-07-28T13:13:07.170Z,1.90
2022-07-28T13:15:35.124Z,3.27
2022-07-28T13:18:02.716Z,2.13
2022-07-28T13:20:29.787Z,2.00
2022-07-28T13:22:57.600Z,2.23
2022-07-28T13:25:24.755Z,2.10
2022-07-28T13:27:55.715Z,3.60
2022-07-28T13:30:23.959Z,2.67
2022-07-28T13:32:51.377Z,1.93
2022-07-28T13:35:21.040Z,1.60
2022-07-28T13:37:48.569Z,2.57
2022-07-28T13:40:16.155Z,1.90
2022-07-28T13:42:53.230Z,2.00
2022-07-28T13:45:24.667Z,2.47
2022-07-28T13:47:53.470Z,2.23
2022-07-28T13:50:21.492Z,2.70
2022-07-28T13:52:48.800Z,3.23
2022-07-28T13:55:20.911Z,2.77
2022-07-28T13:57:50.235Z,2.67
2022-07-28T14:00:22.601Z,2.70
2022-07-28T14:02:50.170Z,2.77
2022-07-28T14:05:17.429Z,2.60
2022-07-28T14:07:48.661Z,2.83
2022-07-28T14:10:18.105Z,2.20
2022-07-28T14:12:46.509Z,2.27
2022-07-28T14:15:14.363Z,2.17
2022-07-28T14:17:43.447Z,2.57
2022-07-28T14:20:16.408Z,3.13
2022-07-28T14:22:44.837Z,2.70
2022-07-28T14:25:19.551Z,1.87
2022-07-28T14:27:49.512Z,2.10
2022-07-28T14:30:17.515Z,2.30
2022-07-28T14:32:44.645Z,3.33
2022-07-28T14:35:12.232Z,2.23
2022-07-28T14:40:27.490Z,2.20
2022-07-28T14:42:54.755Z,2.00
2022-07-28T14:45:22.055Z,2.00
2022-07-28T14:47:49.159Z,2.43
2022-07-28T14:50:16.243Z,2.20
2022-07-28T14:52:44.858Z,1.70
2022-07-28T14:55:13.104Z,1.57
2022-07-28T14:57:52.263Z,2.80
2022-07-28T15:00:23.891Z,2.60
2022-07-28T15:02:53.233Z,1.67
2022-07-28T15:05:22.323Z,1.40
2022-07-28T15:07:52.340Z,1.90
2022-07-28T15:10:21.082Z,1.33
2022-07-28T15:12:48.216Z,1.60
2022-07-28T15:15:16.054Z,1.93
2022-07-28T15:17:43.601Z,1.30
2022-07-28T15:20:11.537Z,1.50
2022-07-28T15:22:39.255Z,2.13
2022-07-28T15:25:06.769Z,1.30
2022-07-28T15:27:34.290Z,1.63
2022-07-28T15:30:03.452Z,1.10
2022-07-28T15:32:31.615Z,1.20
2022-07-28T15:34:59.336Z,1.20
2022-07-28T15:37:28.148Z,1.20
2022-07-28T15:39:55.804Z,1.70
2022-07-28T15:42:23.018Z,1.27
2022-07-28T15:44:50.500Z,1.10
2022-07-28T15:47:18.017Z,2.37
2022-07-28T15:49:45.077Z,1.30
2022-07-28T15:52:14.272Z,1.37
2022-07-28T15:54:41.346Z,1.57
2022-07-28T15:57:08.495Z,1.93
2022-07-28T15:59:49.864Z,1.83
2022-07-28T16:02:19.067Z,1.60
2022-07-28T16:04:53.686Z,1.37
2022-07-28T16:07:28.785Z,1.80
2022-07-28T16:09:56.325Z,1.13
2022-07-28T16:12:25.842Z,1.20
2022-07-28T16:14:55.972Z,1.57
2022-07-28T16:17:24.147Z,1.37
2022-07-28T16:19:51.950Z,1.20
2022-07-28T16:22:20.633Z,1.70
2022-07-28T16:24:48.182Z,1.70
2022-07-28T16:27:15.471Z,1.37
2022-07-28T16:29:43.319Z,1.73
2022-07-28T16:32:10.499Z,0.87
2022-07-28T16:34:37.671Z,1.33
2022-07-28T16:37:05.613Z,1.30
2022-07-28T16:39:33.509Z,1.43
2022-07-28T16:42:01.638Z,1.23
2022-07-28T16:44:29.525Z,1.70
2022-07-28T16:46:56.972Z,1.90
2022-07-28T16:49:25.206Z,1.70
2022-07-28T16:51:52.329Z,1.63
2022-07-28T16:54:20.266Z,1.20
2022-07-28T16:56:48.029Z,1.50
2022-07-28T16:59:15.576Z,1.40
2022-07-28T17:01:46.291Z,1.37
2022-07-28T17:04:16.064Z,1.30
2022-07-28T17:06:43.748Z,1.83
2022-07-28T17:09:11.178Z,1.10
2022-07-28T17:11:39.125Z,1.47
2022-07-28T17:14:06.163Z,1.10
2022-07-28T17:16:33.287Z,1.10
2022-07-28T17:19:01.241Z,1.57
2022-07-28T17:21:28.328Z,1.77
2022-07-28T17:23:55.444Z,1.33
2022-07-28T17:27:32.138Z,1.70
2022-07-28T17:29:10.553Z,1.30
2022-07-28T17:31:38.630Z,1.40
2022-07-28T17:34:05.985Z,1.10
2022-07-28T17:36:35.692Z,1.70
2022-07-28T17:39:05.910Z,1.30
2022-07-28T17:41:34.706Z,1.33
2022-07-28T17:44:02.678Z,1.20
2022-07-28T17:46:30.467Z,1.47
2022-07-28T17:48:58.571Z,1.37
2022-07-28T17:51:27.353Z,1.73
2022-07-28T17:53:54.949Z,1.67
2022-07-28T17:56:22.846Z,2.53
2022-07-28T17:58:49.952Z,1.73
2022-07-28T18:01:17.221Z,2.00
2022-07-28T18:03:56.619Z,1.23
2022-07-28T18:06:34.867Z,1.50
2022-07-28T18:09:11.196Z,1.80
2022-07-28T18:11:56.862Z,1.10
2022-07-28T18:14:30.541Z,1.53
2022-07-28T18:16:58.534Z,1.17
2022-07-28T18:19:26.703Z,1.53
2022-07-28T18:21:53.879Z,1.23
2022-07-28T18:24:22.768Z,2.07
2022-07-28T18:26:51.686Z,1.57
2022-07-28T18:29:21.449Z,1.40
2022-07-28T18:31:52.748Z,1.50
2022-07-28T18:34:23.524Z,1.97
2022-07-28T18:36:52.566Z,1.50
2022-07-28T18:39:20.149Z,2.03
2022-07-28T18:41:48.001Z,1.30
2022-07-28T18:44:19.612Z,1.40
2022-07-28T18:46:47.267Z,1.80
2022-07-28T18:49:15.164Z,1.37
2022-07-28T18:51:44.911Z,2.00
2022-07-28T18:54:14.322Z,1.67
2022-07-28T18:56:42.064Z,1.97
2022-07-28T18:59:09.539Z,1.30
2022-07-28T19:01:36.583Z,1.37
2022-07-28T19:04:05.738Z,1.50
2022-07-28T19:06:32.784Z,1.50
2022-07-28T19:09:00.258Z,1.17
2022-07-28T19:11:27.347Z,2.63
2022-07-28T19:13:54.394Z,1.37
2022-07-28T19:16:21.956Z,1.57
2022-07-28T19:18:49.518Z,2.33
2022-07-28T19:21:16.569Z,1.90
2022-07-28T19:23:44.105Z,1.50
2022-07-28T19:26:11.135Z,1.83
2022-07-28T19:28:38.630Z,1.97
2022-07-28T19:31:10.273Z,1.10
2022-07-28T19:33:43.744Z,1.63
2022-07-28T19:36:13.766Z,2.30
2022-07-28T19:38:42.005Z,1.83
2022-07-28T19:41:10.008Z,1.60
2022-07-28T19:43:37.533Z,2.10
2022-07-28T19:46:04.819Z,2.10
2022-07-28T19:48:32.628Z,2.00
2022-07-28T19:51:00.141Z,2.63
2022-07-28T19:53:31.853Z,2.10
2022-07-28T19:55:59.584Z,2.00
2022-07-28T19:58:27.413Z,2.13
2022-07-28T20:00:56.572Z,2.00
2022-07-28T20:04:01.646Z,2.00
2022-07-28T20:06:14.740Z,1.63
2022-07-28T20:08:42.547Z,1.93
2022-07-28T20:11:09.624Z,1.73
2022-07-28T20:13:37.393Z,1.77
2022-07-28T20:16:04.931Z,1.63
2022-07-28T20:18:31.961Z,1.73
2022-07-28T20:20:59.056Z,2.67
2022-07-28T20:23:26.208Z,2.50
2022-07-28T20:25:53.706Z,1.97
2022-07-28T20:28:22.023Z,1.80
2022-07-28T20:30:49.453Z,1.57
2022-07-28T20:33:17.071Z,1.97
2022-07-28T20:35:44.109Z,1.33
2022-07-28T20:38:11.622Z,1.37
2022-07-28T20:40:38.649Z,1.50
2022-07-28T20:43:06.121Z,1.60
2022-07-28T20:45:33.693Z,1.83
2022-07-28T20:48:01.310Z,1.53
2022-07-28T20:50:28.791Z,2.10
2022-07-28T20:52:56.239Z,1.83
2022-07-28T20:55:23.813Z,1.63
2022-07-28T20:57:53.057Z,1.50
2022-07-28T21:00:21.948Z,2.20
2022-07-28T21:02:49.615Z,2.00
2022-07-28T21:05:26.800Z,2.20
2022-07-28T21:08:05.911Z,2.10
2022-07-28T21:10:34.716Z,2.00
2022-07-28T21:13:01.731Z,2.20
2022-07-28T21:15:29.276Z,2.03
2022-07-28T21:17:57.683Z,1.70
2022-07-28T21:20:25.168Z,2.97
2022-07-28T21:22:53.183Z,2.17
2022-07-28T21:25:20.495Z,3.10
2022-07-28T21:28:06.327Z,2.20
2022-07-28T21:30:33.583Z,1.70
2022-07-28T21:33:01.063Z,2.10
2022-07-28T21:35:28.620Z,3.07
2022-07-28T21:37:55.920Z,2.30
2022-07-28T21:40:23.654Z,2.57
2022-07-28T21:42:51.249Z,1.70
2022-07-28T21:45:18.527Z,2.20
2022-07-28T21:47:45.626Z,2.10
2022-07-28T21:50:13.511Z,2.93
2022-07-28T21:52:40.584Z,2.50
2022-07-28T21:55:09.598Z,2.50
2022-07-28T21:57:36.756Z,2.37
2022-07-28T22:00:09.735Z,1.90
2022-07-28T22:02:36.835Z,1.90
2022-07-28T22:05:05.274Z,2.70
2022-07-28T22:07:32.448Z,2.80
2022-07-28T22:10:00.088Z,2.63
2022-07-28T22:12:27.102Z,3.47
2022-07-28T22:57:11.054Z,2.37
2022-07-28T22:59:40.173Z,1.70
2022-07-28T23:02:07.751Z,2.10
2022-07-28T23:04:37.424Z,1.70
2022-07-28T23:07:05.463Z,2.37
2022-07-28T23:09:40.230Z,2.00
2022-07-28T23:12:09.027Z,2.20
2022-07-28T23:14:36.863Z,2.80
2022-07-28T23:17:04.715Z,1.90
2022-07-28T23:19:31.774Z,1.73
2022-07-28T23:21:59.258Z,1.80
2022-07-28T23:24:26.270Z,2.27
2022-07-28T23:26:53.337Z,2.37
2022-07-28T23:29:20.507Z,2.23
2022-07-28T23:31:48.237Z,2.37
2022-07-28T23:34:15.621Z,2.13
2022-07-28T23:36:43.337Z,2.90
2022-07-28T23:39:10.819Z,2.33
2022-07-28T23:41:37.870Z,1.97
2022-07-28T23:44:05.357Z,2.10
2022-07-28T23:46:32.549Z,1.93
2022-07-28T23:48:59.658Z,2.57
2022-07-28T23:51:46.756Z,2.57
2022-07-28T23:54:14.722Z,2.50
2022-07-28T23:56:42.632Z,2.40
2022-07-28T23:59:13.697Z,2.33
